Terminal Aerodrome Forecast
Issued by NWS

Home | Current Version | Previous Version | Text Only | Print | Product List | Glossary On
Versions: 1 2 3 4 5 6 7 8 9 10 11 12 13 14 15 16 17 18 19 20 21 22 23 24 25 26 27 28
000
FTUS45 KREV 301700
TAFTRK
TAF
KTRK 301732Z 3018/3118 VRB03KT P6SM FEW002 SCT050
     FM301900 03008KT P6SM SCT060
     FM310200 VRB03KT P6SM SKC
     FM311300 00000KT 1/2SM FZFG VV002
     FM311600 VRB03KT P6SM FEW002 SCT030=

USA.gov is the U.S. government's official web portal to all federal, state and local government web resources and services.